Time;durP1;ratioP1;P1;durP2;ratioP2;P2;SDS_P1;SDS_P2;PMS_P1;PMS_P2;Temp;Humidity;BMP_temperature;BMP_pressure;BME280_temperature;BME280_humidity;BME280_pressure;Samples;Min_cycle;Max_cycle;Signal;HPM_P1;HPM_P2
2021/10/05 00:01:14;;;;;;;3.15;1.00;;;12.50;92.10;;;;;;4792922;29;20097;-85
2021/10/05 00:03:39;;;;;;;3.85;1.20;;;12.60;92.10;;;;;;4798193;29;20045;-85
2021/10/05 00:06:05;;;;;;;4.00;1.10;;;12.50;92.00;;;;;;4822848;29;20054;-84
2021/10/05 00:08:31;;;;;;;4.65;1.20;;;12.50;91.90;;;;;;4806872;29;20050;-85
2021/10/05 00:10:56;;;;;;;3.45;0.95;;;12.50;91.80;;;;;;4792875;29;20550;-85
2021/10/05 00:13:23;;;;;;;6.95;1.30;;;12.50;91.60;;;;;;4807464;29;20062;-84
2021/10/05 00:15:49;;;;;;;5.70;1.27;;;12.40;91.70;;;;;;4792035;29;20108;-84
2021/10/05 00:18:15;;;;;;;5.30;1.48;;;12.40;91.50;;;;;;4810215;29;20053;-84
2021/10/05 00:20:41;;;;;;;4.70;1.23;;;12.40;91.60;;;;;;4809932;29;20051;-84
2021/10/05 00:23:07;;;;;;;6.05;1.20;;;12.40;91.60;;;;;;4807200;29;20085;-84
2021/10/05 00:25:33;;;;;;;5.15;1.20;;;12.40;91.40;;;;;;4800315;29;20546;-84
2021/10/05 00:27:58;;;;;;;5.15;1.33;;;12.30;91.30;;;;;;4798889;29;20051;-84
2021/10/05 00:30:24;;;;;;;5.80;1.40;;;12.30;91.20;;;;;;4791106;29;20523;-85
2021/10/05 00:32:50;;;;;;;5.25;1.13;;;12.30;91.30;;;;;;4805076;29;20059;-84
2021/10/05 00:35:15;;;;;;;4.47;1.20;;;12.30;91.60;;;;;;4819748;29;20137;-85
2021/10/05 00:37:41;;;;;;;6.45;1.25;;;12.30;91.90;;;;;;4804974;29;20133;-85
2021/10/05 00:40:07;;;;;;;4.00;1.05;;;12.30;91.80;;;;;;4810059;29;20046;-85
2021/10/05 00:42:32;;;;;;;6.63;1.23;;;12.20;92.00;;;;;;4814693;29;20054;-85
2021/10/05 00:44:58;;;;;;;4.55;1.20;;;12.20;91.90;;;;;;4794675;29;20058;-85
2021/10/05 00:47:24;;;;;;;4.78;1.20;;;12.20;92.00;;;;;;4793189;29;20416;-85
2021/10/05 00:49:50;;;;;;;4.97;1.33;;;12.20;91.70;;;;;;4803809;29;20038;-85
2021/10/05 00:52:17;;;;;;;4.78;1.23;;;12.10;91.50;;;;;;4800774;29;20049;-86
2021/10/05 00:54:44;;;;;;;5.43;1.23;;;12.10;91.60;;;;;;4807474;29;20050;-85
2021/10/05 00:57:11;;;;;;;5.88;1.15;;;12.10;91.90;;;;;;4797612;29;20057;-85
2021/10/05 00:59:37;;;;;;;3.67;1.10;;;12.00;91.80;;;;;;4807767;29;20052;-85
2021/10/05 01:02:09;;;;;;;6.20;1.35;;;12.00;92.10;;;;;;4800744;29;20053;-85
2021/10/05 01:04:35;;;;;;;4.53;1.02;;;12.00;92.20;;;;;;4808147;29;20039;-86
2021/10/05 01:07:04;;;;;;;4.65;1.20;;;12.00;92.00;;;;;;4797786;29;20556;-85
2021/10/05 01:09:31;;;;;;;7.55;1.20;;;12.00;92.10;;;;;;4791766;29;20493;-86
2021/10/05 01:11:57;;;;;;;3.38;1.10;;;12.00;92.30;;;;;;4792523;29;20511;-85
2021/10/05 01:14:22;;;;;;;4.90;1.20;;;12.00;92.90;;;;;;4809494;29;20149;-85
2021/10/05 01:16:50;;;;;;;2.80;0.98;;;12.00;92.60;;;;;;4805491;29;20561;-85
2021/10/05 01:19:15;;;;;;;7.55;1.58;;;12.00;92.40;;;;;;4806969;29;20146;-85
2021/10/05 01:21:41;;;;;;;4.07;1.13;;;11.90;92.10;;;;;;4790567;29;20568;-85
2021/10/05 01:24:13;;;;;;;4.35;1.15;;;12.00;92.30;;;;;;4806167;29;20458;-86
2021/10/05 01:26:40;;;;;;;4.40;1.20;;;11.90;92.50;;;;;;4805728;29;20085;-85
2021/10/05 01:29:08;;;;;;;4.32;1.10;;;11.90;92.20;;;;;;4818137;29;20446;-85
2021/10/05 01:31:41;;;;;;;5.03;1.30;;;11.90;92.40;;;;;;4790593;29;20099;-86
2021/10/05 01:34:07;;;;;;;6.65;1.40;;;11.80;92.10;;;;;;4791100;29;20058;-85
2021/10/05 01:36:36;;;;;;;6.90;1.30;;;11.80;92.20;;;;;;4790541;29;20416;-85
2021/10/05 01:39:05;;;;;;;5.60;1.27;;;11.80;92.20;;;;;;4794258;29;20055;-85
2021/10/05 01:41:30;;;;;;;6.43;1.35;;;11.80;92.50;;;;;;4808874;29;20051;-86
2021/10/05 01:43:56;;;;;;;7.85;1.67;;;11.80;92.40;;;;;;4791884;29;20050;-85
2021/10/05 01:46:22;;;;;;;6.22;1.48;;;11.70;92.20;;;;;;4796029;29;20050;-86
2021/10/05 01:48:47;;;;;;;6.43;1.60;;;11.70;92.10;;;;;;4796588;29;20051;-85
2021/10/05 01:51:13;;;;;;;10.40;1.60;;;11.70;92.30;;;;;;4790773;29;20055;-85
2021/10/05 01:53:40;;;;;;;9.93;2.10;;;11.60;92.30;;;;;;4799056;29;20042;-85
2021/10/05 01:56:07;;;;;;;5.93;1.70;;;11.60;92.30;;;;;;4801505;29;20050;-86
2021/10/05 01:58:33;;;;;;;5.90;1.50;;;11.60;92.20;;;;;;4813473;29;20511;-85
2021/10/05 02:00:59;;;;;;;5.25;1.50;;;11.60;92.50;;;;;;4817359;29;20058;-85
2021/10/05 02:03:25;;;;;;;8.35;2.25;;;11.60;92.40;;;;;;4797074;29;20412;-86
2021/10/05 02:05:51;;;;;;;5.07;1.40;;;11.60;92.30;;;;;;4807363;29;20046;-86
2021/10/05 02:08:17;;;;;;;5.55;1.45;;;11.50;92.40;;;;;;4798047;29;20534;-86
2021/10/05 02:10:43;;;;;;;7.85;2.00;;;11.50;92.70;;;;;;4807554;29;20054;-86
2021/10/05 02:13:09;;;;;;;5.88;1.70;;;11.50;92.70;;;;;;4790453;29;20511;-86
2021/10/05 02:15:38;;;;;;;5.25;1.50;;;11.50;93.10;;;;;;4803660;29;20046;-85
2021/10/05 02:18:05;;;;;;;6.28;1.83;;;11.50;92.80;;;;;;4800550;29;20125;-86
2021/10/05 02:20:31;;;;;;;5.93;1.90;;;11.50;92.70;;;;;;4793038;29;20046;-86
2021/10/05 02:22:58;;;;;;;6.97;1.60;;;11.50;92.50;;;;;;4791506;29;20563;-86
2021/10/05 02:25:24;;;;;;;6.30;1.92;;;11.50;92.60;;;;;;4790392;29;20051;-87
2021/10/05 02:27:50;;;;;;;7.88;2.10;;;11.50;92.60;;;;;;4800111;29;20046;-87
2021/10/05 02:30:15;;;;;;;6.95;1.83;;;11.50;92.60;;;;;;4790801;29;20125;-87
2021/10/05 02:32:41;;;;;;;5.85;1.90;;;11.50;92.80;;;;;;4801966;29;20054;-86
2021/10/05 02:35:08;;;;;;;6.45;1.70;;;11.50;92.80;;;;;;4807819;29;20046;-85
2021/10/05 02:37:34;;;;;;;6.85;2.20;;;11.40;92.60;;;;;;4796387;29;20051;-86
2021/10/05 02:40:03;;;;;;;6.80;2.40;;;11.40;92.70;;;;;;4791602;29;20113;-86
2021/10/05 02:42:29;;;;;;;9.45;2.20;;;11.40;92.60;;;;;;4798699;29;20047;-86
2021/10/05 02:44:54;;;;;;;7.05;2.05;;;11.40;92.60;;;;;;4808055;29;20145;-85
2021/10/05 02:47:21;;;;;;;6.95;2.30;;;11.40;92.60;;;;;;4819055;29;20051;-85
2021/10/05 02:49:47;;;;;;;7.50;2.15;;;11.40;92.80;;;;;;4789843;29;20088;-85
2021/10/05 02:52:19;;;;;;;7.72;2.35;;;11.40;92.80;;;;;;4792365;29;20047;-85
2021/10/05 02:54:48;;;;;;;9.10;2.53;;;11.40;92.70;;;;;;4789441;29;21052;-86
2021/10/05 02:57:16;;;;;;;5.35;2.05;;;11.40;92.70;;;;;;4792453;29;20077;-85
2021/10/05 02:59:42;;;;;;;8.20;2.17;;;11.40;92.80;;;;;;4797133;29;20078;-86
2021/10/05 03:02:08;;;;;;;8.95;2.00;;;11.30;92.70;;;;;;4793683;29;20520;-86
2021/10/05 03:04:33;;;;;;;5.32;1.75;;;11.30;92.60;;;;;;4790045;29;20046;-85
2021/10/05 03:06:59;;;;;;;6.57;2.28;;;11.30;92.70;;;;;;4804343;29;20133;-85
2021/10/05 03:09:25;;;;;;;7.88;2.05;;;11.30;92.60;;;;;;4795897;29;20493;-86
2021/10/05 03:11:51;;;;;;;6.15;2.00;;;11.30;92.50;;;;;;4790632;29;20062;-85
2021/10/05 03:14:16;;;;;;;5.10;2.15;;;11.30;92.60;;;;;;4807786;29;20115;-85
2021/10/05 03:16:42;;;;;;;7.13;2.80;;;11.30;92.50;;;;;;4790714;29;20520;-85
2021/10/05 03:19:08;;;;;;;8.43;2.50;;;11.20;92.50;;;;;;4791433;29;20043;-86
2021/10/05 03:21:34;;;;;;;7.35;2.58;;;11.20;92.60;;;;;;4791424;29;20061;-86
2021/10/05 03:23:59;;;;;;;6.25;2.10;;;11.20;92.60;;;;;;4805049;29;20484;-85
2021/10/05 03:26:25;;;;;;;7.45;2.60;;;11.20;92.70;;;;;;4806393;29;20103;-86
2021/10/05 03:28:51;;;;;;;5.97;2.30;;;11.10;92.60;;;;;;4807121;29;20050;-85
2021/10/05 03:31:16;;;;;;;8.63;2.60;;;11.10;92.80;;;;;;4810033;29;20046;-85
2021/10/05 03:33:44;;;;;;;8.85;2.85;;;11.10;92.90;;;;;;4796215;29;20459;-86
2021/10/05 03:36:10;;;;;;;4.90;2.30;;;11.10;92.80;;;;;;4795111;29;20058;-85
2021/10/05 03:38:37;;;;;;;6.80;2.40;;;11.10;92.90;;;;;;4804462;29;20043;-85
2021/10/05 03:41:04;;;;;;;6.07;2.80;;;11.00;93.00;;;;;;4802522;29;20384;-86
2021/10/05 03:43:29;;;;;;;7.32;2.92;;;11.00;93.00;;;;;;4800915;29;20381;-85
2021/10/05 03:45:55;;;;;;;7.82;3.15;;;11.00;93.10;;;;;;4806602;29;20058;-86
2021/10/05 03:48:21;;;;;;;7.05;3.40;;;11.00;93.10;;;;;;4799817;29;20088;-85
2021/10/05 03:50:47;;;;;;;6.50;2.83;;;11.00;93.10;;;;;;4803025;29;20051;-85
2021/10/05 03:53:19;;;;;;;7.78;3.08;;;10.90;93.30;;;;;;4817002;29;20059;-85
2021/10/05 03:55:47;;;;;;;8.77;3.38;;;10.90;93.40;;;;;;4803312;29;20054;-85
2021/10/05 03:58:13;;;;;;;6.55;2.85;;;10.80;93.40;;;;;;4809039;29;20526;-85
2021/10/05 04:00:38;;;;;;;7.28;3.15;;;10.90;93.50;;;;;;4808401;29;20502;-85
2021/10/05 04:03:04;;;;;;;6.65;3.60;;;10.80;93.50;;;;;;4806287;29;20053;-85
2021/10/05 04:05:30;;;;;;;6.70;3.67;;;10.80;93.60;;;;;;4793531;29;20051;-85
2021/10/05 04:07:56;;;;;;;7.43;3.60;;;10.80;93.50;;;;;;4795994;29;20488;-85
2021/10/05 04:10:21;;;;;;;7.57;4.00;;;10.80;93.60;;;;;;4807220;29;20062;-86
2021/10/05 04:12:47;;;;;;;7.10;4.05;;;10.80;93.70;;;;;;4792137;29;20478;-85
2021/10/05 04:15:12;;;;;;;6.82;4.10;;;10.80;93.60;;;;;;4792767;29;20405;-85
2021/10/05 04:17:38;;;;;;;10.75;3.70;;;10.70;93.60;;;;;;4804161;29;20061;-85
2021/10/05 04:20:05;;;;;;;7.80;4.10;;;10.70;93.80;;;;;;4798308;29;20047;-85
2021/10/05 04:22:31;;;;;;;9.00;4.28;;;10.70;93.90;;;;;;4816264;29;20500;-85
2021/10/05 04:24:56;;;;;;;8.05;4.35;;;10.70;93.80;;;;;;4792692;29;20134;-86
2021/10/05 04:27:22;;;;;;;8.15;4.22;;;10.70;93.80;;;;;;4818753;29;20053;-85
2021/10/05 04:29:48;;;;;;;8.70;4.07;;;10.70;93.80;;;;;;4821463;29;20054;-85
2021/10/05 04:32:13;;;;;;;6.30;3.92;;;10.70;93.70;;;;;;4792307;29;20123;-85
2021/10/05 04:34:39;;;;;;;10.80;4.32;;;10.60;93.80;;;;;;4804313;29;20058;-84
2021/10/05 04:37:07;;;;;;;9.45;4.68;;;10.60;93.90;;;;;;4799156;29;20042;-85
2021/10/05 04:39:33;;;;;;;10.75;4.38;;;10.70;93.90;;;;;;4797075;29;20062;-86
2021/10/05 04:42:00;;;;;;;8.45;3.90;;;10.60;93.90;;;;;;4813019;29;20066;-85
2021/10/05 04:44:25;;;;;;;10.15;4.55;;;10.60;94.00;;;;;;4793039;29;20081;-86
2021/10/05 04:46:51;;;;;;;7.63;4.40;;;10.70;94.00;;;;;;4807216;29;20130;-85
2021/10/05 04:49:16;;;;;;;8.95;4.28;;;10.60;94.10;;;;;;4799894;29;20042;-86
2021/10/05 04:51:42;;;;;;;11.38;4.95;;;10.60;94.20;;;;;;4803029;29;20108;-85
2021/10/05 04:54:08;;;;;;;8.85;4.80;;;10.60;94.20;;;;;;4798481;29;20042;-85
2021/10/05 04:56:34;;;;;;;8.57;4.60;;;10.60;94.20;;;;;;4805994;29;20050;-86
2021/10/05 04:58:59;;;;;;;9.27;4.70;;;10.60;94.20;;;;;;4792294;29;20070;-86
2021/10/05 05:01:25;;;;;;;7.40;4.30;;;10.50;94.20;;;;;;4805250;29;20049;-86
2021/10/05 05:03:50;;;;;;;8.35;4.88;;;10.50;94.20;;;;;;4808183;29;20135;-85
2021/10/05 05:06:16;;;;;;;8.70;4.85;;;10.50;94.30;;;;;;4805245;29;20412;-84
2021/10/05 05:08:41;;;;;;;6.95;3.90;;;10.50;94.30;;;;;;4794537;29;20522;-85
2021/10/05 05:11:07;;;;;;;10.52;4.70;;;10.50;94.20;;;;;;4803821;29;20050;-85
2021/10/05 05:13:32;;;;;;;7.43;4.15;;;10.50;94.20;;;;;;4808982;29;20140;-85
2021/10/05 05:15:58;;;;;;;8.95;4.32;;;10.50;94.20;;;;;;4809052;29;20089;-84
2021/10/05 05:18:26;;;;;;;10.15;4.40;;;10.50;94.20;;;;;;4823702;29;20395;-85
2021/10/05 05:20:52;;;;;;;8.57;4.70;;;10.50;94.30;;;;;;4806015;29;20051;-85
2021/10/05 05:23:19;;;;;;;7.22;4.35;;;10.50;94.30;;;;;;4795943;29;20047;-84
2021/10/05 05:25:44;;;;;;;8.38;4.38;;;10.50;94.30;;;;;;4788405;29;20808;-85
2021/10/05 05:28:10;;;;;;;6.88;4.15;;;10.50;94.40;;;;;;4802402;29;20046;-84
2021/10/05 05:30:36;;;;;;;7.05;4.32;;;10.50;94.20;;;;;;4812978;29;20039;-84
2021/10/05 05:33:01;;;;;;;7.25;3.83;;;10.50;94.10;;;;;;4805763;29;20058;-85
2021/10/05 05:35:27;;;;;;;6.55;3.95;;;10.50;94.20;;;;;;4808648;29;20062;-85
2021/10/05 05:37:53;;;;;;;6.38;3.67;;;10.50;94.20;;;;;;4805851;29;20035;-85
2021/10/05 05:40:19;;;;;;;8.68;4.00;;;10.50;94.00;;;;;;4805898;29;20061;-85
2021/10/05 05:42:44;;;;;;;5.63;3.60;;;10.50;94.20;;;;;;4801227;29;20413;-85
2021/10/05 05:45:11;;;;;;;7.85;3.78;;;10.50;94.20;;;;;;4814981;29;20046;-85
2021/10/05 05:47:37;;;;;;;9.93;4.10;;;10.50;94.30;;;;;;4806370;29;20136;-85
2021/10/05 05:50:04;;;;;;;6.78;4.03;;;10.50;94.30;;;;;;4808140;29;20594;-85
2021/10/05 05:52:32;;;;;;;10.10;4.20;;;10.50;94.40;;;;;;4804188;29;20511;-85
2021/10/05 05:54:58;;;;;;;6.78;3.97;;;10.50;94.40;;;;;;4808559;29;20084;-85
2021/10/05 05:57:23;;;;;;;9.15;4.50;;;10.50;94.30;;;;;;4806768;29;20082;-84
2021/10/05 05:59:49;;;;;;;6.38;3.75;;;10.50;94.30;;;;;;4802443;29;20146;-84
2021/10/05 06:02:15;;;;;;;8.50;3.83;;;10.50;94.30;;;;;;4808365;29;20047;-84
2021/10/05 06:04:41;;;;;;;7.25;3.83;;;10.50;94.30;;;;;;4794771;29;20050;-84
2021/10/05 06:07:06;;;;;;;6.53;3.50;;;10.50;94.20;;;;;;4804535;29;20074;-85
2021/10/05 06:09:35;;;;;;;8.90;4.00;;;10.50;94.30;;;;;;4802165;29;20054;-85
2021/10/05 06:12:03;;;;;;;8.73;4.05;;;10.50;94.30;;;;;;4789975;29;20066;-84
2021/10/05 06:14:29;;;;;;;6.45;3.80;;;10.50;94.20;;;;;;4803298;29;20054;-85
2021/10/05 06:16:56;;;;;;;9.40;3.95;;;10.50;94.30;;;;;;4805379;29;20045;-85
2021/10/05 06:19:54;;;;;;;8.35;3.95;;;10.50;94.40;;;;;;4790003;29;20086;-89
2021/10/05 06:22:25;;;;;;;7.03;3.90;;;10.50;94.20;;;;;;4790220;29;20043;-87
2021/10/05 06:24:53;;;;;;;8.52;3.72;;;10.50;94.40;;;;;;4790365;29;20084;-87
2021/10/05 06:27:19;;;;;;;6.70;3.70;;;10.50;94.60;;;;;;4809551;29;20050;-85
2021/10/05 06:29:51;;;;;;;6.75;3.58;;;10.50;94.30;;;;;;4803716;29;20138;-86
2021/10/05 06:32:19;;;;;;;7.68;4.10;;;10.50;94.30;;;;;;4807467;29;20081;-84
2021/10/05 06:34:44;;;;;;;9.55;4.30;;;10.50;94.40;;;;;;4799855;29;20487;-84
2021/10/05 06:37:10;;;;;;;8.55;4.10;;;10.50;94.50;;;;;;4798359;29;20054;-85
2021/10/05 06:39:35;;;;;;;7.03;3.67;;;10.50;94.60;;;;;;4807819;29;20645;-84
2021/10/05 06:42:01;;;;;;;8.15;3.97;;;10.50;94.50;;;;;;4807809;29;20571;-85
2021/10/05 06:44:26;;;;;;;7.05;3.88;;;10.50;94.60;;;;;;4796674;29;20050;-84
2021/10/05 06:46:54;;;;;;;7.03;4.00;;;10.50;94.60;;;;;;4804702;29;20051;-84
2021/10/05 06:49:20;;;;;;;7.72;3.92;;;10.50;94.50;;;;;;4789190;29;20047;-83
2021/10/05 06:51:46;;;;;;;6.40;3.65;;;10.60;94.60;;;;;;4805166;29;20043;-83
2021/10/05 06:54:11;;;;;;;7.18;3.90;;;10.60;94.60;;;;;;4795617;29;20050;-83
2021/10/05 06:56:37;;;;;;;8.05;3.80;;;10.60;94.60;;;;;;4788467;29;20142;-83
2021/10/05 06:59:02;;;;;;;6.70;3.83;;;10.60;94.70;;;;;;4789829;29;20067;-83
2021/10/05 07:01:30;;;;;;;6.75;3.92;;;10.60;94.80;;;;;;4804470;29;20075;-84
2021/10/05 07:03:56;;;;;;;6.88;4.00;;;10.70;94.80;;;;;;4805294;29;20042;-84
2021/10/05 07:06:25;;;;;;;8.85;3.90;;;10.70;94.80;;;;;;4796535;29;20111;-85
2021/10/05 07:08:57;;;;;;;7.07;3.95;;;10.70;94.70;;;;;;4785939;29;20080;-84
2021/10/05 07:11:23;;;;;;;6.93;3.88;;;10.80;94.70;;;;;;4793326;29;20086;-84
2021/10/05 07:13:49;;;;;;;7.47;3.60;;;10.80;94.70;;;;;;4793973;29;20057;-87
2021/10/05 07:16:14;;;;;;;7.28;3.40;;;10.80;94.80;;;;;;4814197;29;20466;-86
2021/10/05 07:18:40;;;;;;;6.18;3.53;;;10.90;94.70;;;;;;4810178;29;20046;-86
2021/10/05 07:21:07;;;;;;;5.70;3.65;;;10.90;94.70;;;;;;4814054;29;20076;-87
2021/10/05 07:23:32;;;;;;;5.20;3.17;;;11.00;94.80;;;;;;4803673;29;20086;-86
2021/10/05 07:25:58;;;;;;;7.88;3.42;;;11.00;94.70;;;;;;4798372;29;20093;-86
2021/10/05 07:28:23;;;;;;;10.52;3.63;;;11.10;94.70;;;;;;4801463;29;20047;-87
2021/10/05 07:30:49;;;;;;;5.68;3.53;;;11.20;94.70;;;;;;4807764;29;20424;-87
2021/10/05 07:33:15;;;;;;;6.43;3.10;;;11.20;94.60;;;;;;4803761;29;20082;-86
2021/10/05 07:35:41;;;;;;;5.53;3.22;;;11.30;94.60;;;;;;4801276;29;20501;-86
2021/10/05 07:38:07;;;;;;;6.90;3.00;;;11.40;94.60;;;;;;4794469;29;20053;-87
2021/10/05 07:40:33;;;;;;;7.70;3.10;;;11.40;94.50;;;;;;4807968;29;20770;-87
2021/10/05 07:43:00;;;;;;;5.53;3.30;;;11.50;94.40;;;;;;4804577;29;20078;-87
2021/10/05 07:45:28;;;;;;;6.25;3.05;;;11.60;94.40;;;;;;4802485;29;20079;-85
2021/10/05 07:47:54;;;;;;;7.07;2.83;;;11.70;94.30;;;;;;4800331;29;20050;-86
2021/10/05 07:50:20;;;;;;;7.97;3.13;;;11.70;94.20;;;;;;4813289;29;20497;-87
2021/10/05 07:52:46;;;;;;;6.15;3.13;;;11.80;94.10;;;;;;4806896;29;20488;-85
2021/10/05 07:55:12;;;;;;;5.88;3.05;;;11.80;94.00;;;;;;4805978;29;20057;-86
2021/10/05 07:57:39;;;;;;;6.85;2.83;;;11.90;93.90;;;;;;4793367;29;20054;-86
2021/10/05 08:00:06;;;;;;;6.63;2.83;;;12.00;93.90;;;;;;4798625;29;20176;-84
2021/10/05 08:02:32;;;;;;;5.65;2.95;;;12.00;93.80;;;;;;4804047;29;20069;-85
2021/10/05 08:04:58;;;;;;;6.55;2.90;;;12.00;93.80;;;;;;4802940;29;20436;-84
2021/10/05 08:07:26;;;;;;;7.25;2.75;;;12.10;93.70;;;;;;4798917;29;20046;-85
2021/10/05 08:09:53;;;;;;;6.05;3.10;;;12.10;93.60;;;;;;4808725;29;20077;-85
2021/10/05 08:12:20;;;;;;;5.75;3.03;;;12.10;93.50;;;;;;4802135;29;20046;-84
2021/10/05 08:14:45;;;;;;;5.75;2.97;;;12.20;93.40;;;;;;4791681;29;20447;-84
2021/10/05 08:17:11;;;;;;;6.47;2.85;;;12.20;93.40;;;;;;4795630;29;20053;-84
2021/10/05 08:19:37;;;;;;;5.68;2.97;;;12.20;93.30;;;;;;4805133;29;20099;-85
2021/10/05 08:22:03;;;;;;;5.07;2.53;;;12.30;93.30;;;;;;4801061;29;20479;-84
2021/10/05 08:24:29;;;;;;;6.93;3.30;;;12.30;93.30;;;;;;4809726;29;20065;-84
2021/10/05 08:26:55;;;;;;;5.30;2.90;;;12.40;93.40;;;;;;4805541;29;20054;-83
2021/10/05 08:29:21;;;;;;;5.65;2.70;;;12.40;93.40;;;;;;4793442;29;20054;-84
2021/10/05 08:31:48;;;;;;;6.22;2.85;;;12.40;93.30;;;;;;4795394;29;20049;-84
2021/10/05 08:34:14;;;;;;;4.88;3.08;;;12.50;93.20;;;;;;4808657;29;20568;-84
2021/10/05 08:36:40;;;;;;;4.82;2.97;;;12.50;93.30;;;;;;4804374;29;20396;-84
2021/10/05 08:39:05;;;;;;;4.93;2.92;;;12.60;93.20;;;;;;4796907;29;20094;-84
2021/10/05 08:41:31;;;;;;;5.75;2.80;;;12.60;93.20;;;;;;4822362;29;20062;-84
2021/10/05 08:43:59;;;;;;;5.47;2.78;;;12.70;93.30;;;;;;4804909;29;20401;-84
2021/10/05 08:46:26;;;;;;;5.28;2.60;;;12.80;93.20;;;;;;4790629;29;20054;-83
2021/10/05 08:48:52;;;;;;;5.38;2.75;;;12.90;92.90;;;;;;4798742;29;20145;-86
2021/10/05 08:51:18;;;;;;;5.20;3.10;;;13.00;92.80;;;;;;4808469;29;20456;-86
2021/10/05 08:53:44;;;;;;;4.97;2.90;;;13.00;92.70;;;;;;4801935;29;20053;-84
2021/10/05 08:56:10;;;;;;;6.90;2.95;;;13.20;92.70;;;;;;4804088;29;20125;-85
2021/10/05 08:58:37;;;;;;;6.85;2.92;;;13.20;92.50;;;;;;4798542;29;20042;-84
2021/10/05 09:01:13;;;;;;;5.28;2.83;;;13.30;92.40;;;;;;4791027;29;20134;-85
2021/10/05 09:03:52;;;;;;;6.38;3.05;;;13.40;92.30;;;;;;4797732;29;20125;-84
2021/10/05 09:06:19;;;;;;;6.05;2.60;;;13.50;92.30;;;;;;4809119;29;20047;-84
2021/10/05 09:08:45;;;;;;;5.63;2.78;;;13.50;92.10;;;;;;4801975;29;20119;-83
2021/10/05 09:11:12;;;;;;;6.57;2.95;;;13.60;92.10;;;;;;4793706;29;20058;-84
2021/10/05 09:13:45;;;;;;;4.55;2.58;;;13.60;92.10;;;;;;4797225;29;20081;-85
2021/10/05 09:16:31;;;;;;;5.57;3.17;;;13.70;92.00;;;;;;4809005;29;20057;-84
2021/10/05 09:19:03;;;;;;;7.15;2.72;;;13.70;91.80;;;;;;4797441;29;20454;-83
2021/10/05 09:21:42;;;;;;;6.65;2.70;;;13.80;92.00;;;;;;4795620;29;20051;-84
2021/10/05 09:24:13;;;;;;;6.25;2.58;;;13.90;91.90;;;;;;4795650;29;20492;-84
2021/10/05 09:26:57;;;;;;;5.28;2.40;;;13.90;91.50;;;;;;4801256;29;20042;-84
2021/10/05 09:29:34;;;;;;;5.95;2.20;;;14.00;91.20;;;;;;4801437;29;20516;-85
2021/10/05 09:32:05;;;;;;;7.13;2.40;;;14.10;91.70;;;;;;4816425;29;20051;-86
2021/10/05 09:34:56;;;;;;;7.72;2.85;;;14.10;91.10;;;;;;4790095;29;20068;-86
2021/10/05 09:37:24;;;;;;;5.30;2.25;;;14.20;90.70;;;;;;4792721;29;20053;-84
2021/10/05 09:39:57;;;;;;;5.00;2.53;;;14.20;90.80;;;;;;4794541;29;20082;-87
2021/10/05 09:42:28;;;;;;;6.82;2.75;;;14.30;90.70;;;;;;4794582;29;20065;-87
2021/10/05 09:44:59;;;;;;;5.80;2.35;;;14.40;90.60;;;;;;4800878;29;20058;-87
2021/10/05 09:47:40;;;;;;;5.75;2.63;;;14.50;90.60;;;;;;4793616;29;20054;-86
2021/10/05 09:50:15;;;;;;;6.03;2.67;;;14.50;90.50;;;;;;4793463;29;20129;-85
2021/10/05 09:52:52;;;;;;;7.22;2.78;;;14.60;90.20;;;;;;4804943;29;20523;-85
2021/10/05 09:55:21;;;;;;;7.60;3.25;;;14.70;90.00;;;;;;4805238;29;20125;-85
2021/10/05 09:57:48;;;;;;;6.45;2.75;;;14.70;90.20;;;;;;4790854;29;20054;-86
2021/10/05 10:00:15;;;;;;;4.95;2.47;;;14.80;90.20;;;;;;4790352;29;20051;-85
2021/10/05 10:02:42;;;;;;;7.93;2.63;;;14.80;90.20;;;;;;4806909;29;20100;-86
2021/10/05 10:05:14;;;;;;;5.43;2.47;;;14.90;89.90;;;;;;4790739;29;20074;-85
2021/10/05 10:07:44;;;;;;;6.00;2.88;;;14.90;89.50;;;;;;4789220;29;20085;-86
2021/10/05 10:10:13;;;;;;;4.60;2.30;;;15.00;89.50;;;;;;4801446;29;20176;-84
2021/10/05 10:12:49;;;;;;;4.57;2.08;;;15.00;89.40;;;;;;4794255;29;20508;-85
2021/10/05 10:15:15;;;;;;;7.13;2.45;;;15.00;89.20;;;;;;4810914;29;20497;-85
2021/10/05 10:17:41;;;;;;;5.82;2.78;;;15.00;89.20;;;;;;4817068;29;20057;-84
2021/10/05 10:20:23;;;;;;;5.70;2.50;;;15.10;89.30;;;;;;4794263;29;20130;-84
2021/10/05 10:22:49;;;;;;;5.53;2.28;;;15.10;89.30;;;;;;4795562;29;20058;-83
2021/10/05 10:25:24;;;;;;;8.40;2.00;;;15.20;89.20;;;;;;4793179;29;20042;-84
2021/10/05 10:27:55;;;;;;;5.72;1.90;;;15.20;88.70;;;;;;4796249;29;20053;-84
2021/10/05 10:30:24;;;;;;;7.65;2.08;;;15.30;88.30;;;;;;4794389;29;20038;-84
2021/10/05 10:32:58;;;;;;;4.55;2.17;;;15.30;88.30;;;;;;4797352;29;20063;-84
2021/10/05 10:35:26;;;;;;;5.30;2.00;;;15.40;88.40;;;;;;4805318;29;20070;-91
2021/10/05 10:45:43;;;;;;;5.35;1.98;;;15.50;87.70;;;;;;4822642;24;20180;-83
2021/10/05 10:48:37;;;;;;;3.65;1.48;;;15.60;88.10;;;;;;4785014;29;20085;-85
2021/10/05 10:51:34;;;;;;;4.45;1.98;;;15.70;88.00;;;;;;4791405;29;20050;-85
2021/10/05 10:54:22;;;;;;;4.13;1.90;;;15.80;88.50;;;;;;4793509;29;20054;-83
2021/10/05 10:57:10;;;;;;;4.10;1.73;;;15.80;87.80;;;;;;4792390;29;20054;-84
2021/10/05 10:59:45;;;;;;;3.38;1.60;;;15.90;88.00;;;;;;4793915;29;20095;-86
2021/10/05 11:02:17;;;;;;;5.07;1.88;;;16.00;87.40;;;;;;4792603;29;20059;-86
2021/10/05 11:04:52;;;;;;;6.50;1.85;;;16.10;87.90;;;;;;4792929;29;20065;-85
2021/10/05 11:07:17;;;;;;;5.72;1.67;;;16.10;87.90;;;;;;4794961;29;20519;-85
2021/10/05 11:09:43;;;;;;;6.65;1.50;;;16.20;87.90;;;;;;4798699;29;20047;-86
2021/10/05 11:12:12;;;;;;;5.60;1.50;;;16.20;87.70;;;;;;4797352;29;20520;-86
2021/10/05 11:14:41;;;;;;;6.53;1.55;;;16.30;87.60;;;;;;4803420;29;20485;-86
2021/10/05 11:17:09;;;;;;;5.90;1.58;;;16.40;87.00;;;;;;4797313;29;20492;-86
2021/10/05 11:19:40;;;;;;;5.57;1.40;;;16.50;87.40;;;;;;4800573;29;20089;-85
2021/10/05 11:22:14;;;;;;;5.68;1.58;;;16.50;86.80;;;;;;4800705;29;20061;-85
2021/10/05 11:24:45;;;;;;;6.28;1.33;;;16.60;86.80;;;;;;4792506;29;20634;-85
2021/10/05 11:27:15;;;;;;;3.33;1.23;;;16.70;86.30;;;;;;4799674;29;20416;-85
2021/10/05 11:29:41;;;;;;;6.25;1.35;;;16.80;85.40;;;;;;4795454;29;20046;-85
2021/10/05 11:32:08;;;;;;;5.82;1.20;;;16.80;84.80;;;;;;4795865;29;20039;-85
2021/10/05 11:34:39;;;;;;;5.22;1.50;;;16.90;85.30;;;;;;4792861;29;20058;-85
2021/10/05 11:37:07;;;;;;;6.45;1.48;;;16.90;84.60;;;;;;4801453;29;20047;-86
2021/10/05 11:39:35;;;;;;;4.50;1.20;;;17.00;84.60;;;;;;4795809;29;20064;-85
2021/10/05 11:42:10;;;;;;;5.30;1.48;;;17.10;84.90;;;;;;4804870;29;20051;-86
2021/10/05 11:44:41;;;;;;;3.60;1.27;;;17.10;84.90;;;;;;4806933;29;20086;-85
2021/10/05 11:47:10;;;;;;;4.68;1.25;;;17.20;84.50;;;;;;4796176;29;20492;-85
2021/10/05 11:49:38;;;;;;;4.50;1.30;;;17.30;84.50;;;;;;4797145;29;20400;-86
2021/10/05 11:52:05;;;;;;;3.25;1.38;;;17.30;84.00;;;;;;4803243;29;20099;-86
2021/10/05 11:54:35;;;;;;;4.78;1.30;;;17.30;83.50;;;;;;4800235;29;20050;-88
2021/10/05 11:57:07;;;;;;;6.32;1.35;;;17.40;83.90;;;;;;4795525;29;20125;-86
2021/10/05 11:59:34;;;;;;;4.18;1.35;;;17.40;84.30;;;;;;4791018;29;20046;-85
2021/10/05 12:02:09;;;;;;;4.53;1.55;;;17.50;84.30;;;;;;4793828;29;20461;-84
2021/10/05 12:04:36;;;;;;;6.38;1.38;;;17.50;83.40;;;;;;4799223;29;20054;-84
2021/10/05 12:07:08;;;;;;;6.63;1.45;;;17.60;83.70;;;;;;4791702;29;20514;-85
2021/10/05 12:09:35;;;;;;;4.15;1.27;;;17.60;82.90;;;;;;4792488;29;20062;-86
2021/10/05 12:12:11;;;;;;;5.00;1.30;;;17.60;82.60;;;;;;4800498;29;20446;-85
2021/10/05 12:14:51;;;;;;;8.00;1.80;;;17.60;82.00;;;;;;4805307;29;20074;-84
2021/10/05 12:17:18;;;;;;;4.10;1.35;;;17.60;81.80;;;;;;4802722;29;20046;-89
2021/10/05 12:19:57;;;;;;;6.03;1.40;;;17.70;81.90;;;;;;4792221;29;20065;-89
2021/10/05 12:22:28;;;;;;;2.90;1.35;;;17.70;81.30;;;;;;4796136;29;20400;-88
2021/10/05 12:24:55;;;;;;;6.63;1.70;;;17.70;81.90;;;;;;4803929;29;20055;-87
2021/10/05 12:27:29;;;;;;;4.97;1.55;;;17.70;82.20;;;;;;4801049;29;20069;-88
2021/10/05 12:29:58;;;;;;;5.97;1.50;;;17.70;81.80;;;;;;4800254;29;20560;-87
2021/10/05 12:32:38;;;;;;;6.20;1.65;;;17.80;82.30;;;;;;4800689;29;20050;-88
2021/10/05 12:35:20;;;;;;;4.25;1.30;;;17.80;81.10;;;;;;4809601;29;20054;-86
2021/10/05 12:37:54;;;;;;;9.23;1.70;;;17.80;82.20;;;;;;4799426;29;20556;-86
2021/10/05 12:40:19;;;;;;;4.18;1.30;;;17.80;82.90;;;;;;4790027;29;20062;-86
2021/10/05 12:42:47;;;;;;;5.93;1.50;;;17.80;82.70;;;;;;4795318;29;20058;-85
2021/10/05 12:45:20;;;;;;;5.32;1.42;;;17.80;82.10;;;;;;4808188;29;20080;-85
2021/10/05 12:47:54;;;;;;;6.13;1.20;;;17.80;82.30;;;;;;4801392;29;20062;-84
2021/10/05 12:50:21;;;;;;;6.50;1.58;;;17.80;82.40;;;;;;4802787;29;20829;-84
2021/10/05 12:52:52;;;;;;;5.38;1.17;;;17.80;81.80;;;;;;4807098;29;20133;-85
2021/10/05 12:55:19;;;;;;;3.25;1.02;;;17.80;82.40;;;;;;4801968;29;20404;-85
2021/10/05 12:57:45;;;;;;;4.65;1.17;;;17.80;82.00;;;;;;4799125;29;20043;-85